Cleveland, MS (38732)

1:16 PM CDT on April 27, 2015 (GMT -0500)
Cleveland Municipal | | Change Station
CLOSE
Current Station
Airport
Location: Cleveland Municipal Airport,
Elevation: 138 ft
Nearby Weather Stations
Active Advisory: Flood Advisory Active Notice: Public Information Statement

Elev 138 ft 33.76 °N, 90.76 °W | Updated 21 minutes ago

Clear
Clear
64 °F
Feels Like 64 °F
N
17
Wind Variable Wind from NE

Today
High -- | Low -- °F
--% Chance of Precip.
Yesterday
High -- | Low -- °F
Precip. -- in
6:18 AM 7:43 PM
Waxing Gibbous, 66% visible
Pressure 29.91 in
Visibility 10.0 miles
Clouds Clear
Dew Point 50 °F
Humidity 62%
Rainfall 0.02 in
Snow Depth Not available.
UV 11 out of 12
Pollen 9.70 out of 12
Air Quality Not available.
Flu Activity No Activity
METAR KRNV 271755Z AUTO 05015KT 10SM CLR 18/10 A2991 RMK AO2 60001 T01750102 10175 20131

More Conditions Fewer Conditions

Pressure 29.91 in
Visibility 10.0 miles
Clouds Clear
Dew Point 50 °F
Humidity 62%
Rainfall 0.02 in
Snow Depth Not available.
UV 11 out of 12
Pollen 9.70 out of 12
Air Quality Not available.
Flu Activity No Activity
METAR KRNV 271755Z AUTO 05015KT 10SM CLR 18/10 A2991 RMK AO2 60001 T01750102 10175 20131

More Conditions Fewer Conditions

10-Day Weather Forecast

Almanac

Astronomy

Apr. 27, 2015 Rise Set
Actual Time
Civil Twilight
Nautical Twilight
Astronomical Twilight
Moon
Length of Visible Light
Length of Day
Tomorrow will be .
, % of the Moon is Illuminated

Today's Extremes

State Highs State Lows

Community

WunderPhotos

Upload Photos

1,817,389 photos uploaded!

WunderBlogs® & News

Nearby

Air Quality

  Air Quality AQ Index Pollutant
Not available.

Snow Depth

Station Depth Elevation

Earthquake Activity

City Distance Mag. Time & Date
Minimum magnitude displayed is 2.5.

Coastal Water Temperatures

Place Temperature

Stations

Nearby Weather Stations

Station Location Temp. Windchill Dew Point Humidity Wind Precip. Elev Updated Type
                   
Flood Advisory
Statement as of 11:00 AM CDT on April 27, 2015

The National Weather Service in Jackson has issued a
* Flood Advisory for
the Mississippi River near Arkansas City.
* Until Tuesday evening.
* At 10:00 am Monday the stage was 33.8 feet.
* Flood stage is 37.0 feet.
* Forecast... the river will rise to near 34.2 feet by Tuesday
afternoon.


              Flood observed forecast 7 am crest
location stg stg day time Tue Wed Thu crest time date

Lower Mississippi River
Arkansas City 37 33.8 Mon 10 am 34.1 34.2 34.2 34.2 07 PM 04/29




Lat... Lon 3340 9128 3357 9128 3413 9108 3412 9066
      3358 9106 3340 9105